Time;durP1;ratioP1;P1;durP2;ratioP2;P2;SDS_P1;SDS_P2;PMS_P1;PMS_P2;Temp;Humidity;BMP_temperature;BMP_pressure;BME280_temperature;BME280_humidity;BME280_pressure;Samples;Min_cycle;Max_cycle;Signal;HPM_P1;HPM_P2
2023/08/25 00:00:10;;;;;;;16.15;10.77;;;;;;;-146.25;100.00;52124.91;2097139;28;38366;-64
2023/08/25 00:01:15;;;;;;;12.98;10.90;;;;;;;-146.25;100.00;52104.63;2097259;28;20126;-64
2023/08/25 00:02:17;;;;;;;13.35;11.30;;;;;;;-146.25;100.00;52112.72;2097070;28;34584;-63
2023/08/25 00:03:23;;;;;;;11.13;9.63;;;;;;;-146.25;100.00;52124.91;2097768;28;20048;-64
2023/08/25 00:04:25;;;;;;;12.32;9.88;;;;;;;-146.25;100.00;52076.22;2097307;28;35593;-64
2023/08/25 00:05:27;;;;;;;16.02;11.48;;;;;;;-146.25;100.00;52108.66;2097137;28;34431;-64
2023/08/25 00:06:29;;;;;;;15.48;11.45;;;;;;;-146.25;100.00;52076.22;2097801;28;20079;-65
2023/08/25 00:07:33;;;;;;;17.42;11.32;;;;;;;-146.25;100.00;52088.41;2097274;28;26629;-63
2023/08/25 00:08:35;;;;;;;13.75;10.98;;;;;;;-146.25;100.00;52051.91;2097012;28;33429;-64
2023/08/25 00:09:37;;;;;;;13.15;10.80;;;;;;;-146.25;100.00;52078.25;2097120;28;35918;-63
2023/08/25 00:10:39;;;;;;;12.23;10.93;;;;;;;-146.25;100.00;52106.66;2096892;28;38016;-64
2023/08/25 00:11:43;;;;;;;12.90;10.82;;;;;;;-146.25;100.00;52120.84;2096776;28;35809;-64
2023/08/25 00:12:46;;;;;;;11.43;10.23;;;;;;;-146.25;100.00;52098.53;2097125;28;31963;-64
2023/08/25 00:13:48;;;;;;;11.65;10.27;;;;;;;-146.25;100.00;52090.44;2096501;28;34851;-64
2023/08/25 00:14:50;;;;;;;13.15;9.82;;;;;;;-146.25;100.00;52118.81;2097280;28;36896;-64
2023/08/25 00:15:51;;;;;;;14.05;11.18;;;;;;;-146.25;100.00;52100.56;2097784;28;33909;-64
2023/08/25 00:16:53;;;;;;;12.98;11.55;;;;;;;-146.25;100.00;52135.03;2096930;28;33932;-64
2023/08/25 00:17:57;;;;;;;13.55;11.13;;;;;;;-146.25;100.00;52058.00;2096808;28;37721;-64
2023/08/25 00:18:59;;;;;;;13.07;11.32;;;;;;;-146.25;100.00;52066.09;2088536;28;35262;-64
2023/08/25 00:20:01;;;;;;;15.32;11.50;;;;;;;-146.25;100.00;52100.56;2088220;28;39025;-64
2023/08/25 00:21:04;;;;;;;12.52;10.48;;;;;;;-146.25;100.00;52139.09;2088897;28;32267;-63
2023/08/25 00:22:08;;;;;;;13.57;10.77;;;;;;;-146.25;100.00;52086.38;2089393;28;37176;-64
2023/08/25 00:23:12;;;;;;;12.52;11.27;;;;;;;-146.25;100.00;52080.28;2089984;28;33951;-64
2023/08/25 00:24:15;;;;;;;15.63;11.80;;;;;;;-146.25;100.00;52084.34;2088638;28;34069;-64
2023/08/25 00:25:17;;;;;;;12.45;11.15;;;;;;;-146.25;100.00;52092.44;2088376;28;36836;-64
2023/08/25 00:26:19;;;;;;;12.95;10.50;;;;;;;-146.25;100.00;52090.44;2088872;28;32455;-64
2023/08/25 00:27:21;;;;;;;13.82;10.18;;;;;;;-146.25;100.00;52092.44;2089569;28;20972;-64
2023/08/25 00:28:23;;;;;;;11.15;10.02;;;;;;;-146.25;100.00;52082.31;2089134;28;20780;-64
2023/08/25 00:29:26;;;;;;;11.45;10.35;;;;;;;-146.25;100.00;52112.72;2089057;28;20034;-63
2023/08/25 00:30:28;;;;;;;16.23;12.13;;;;;;;-146.25;100.00;52135.03;2089107;28;20041;-64
2023/08/25 00:31:31;;;;;;;12.85;10.27;;;;;;;-146.25;100.00;52116.78;2089299;28;20048;-63
2023/08/25 00:32:35;;;;;;;13.07;10.18;;;;;;;-146.25;100.00;52064.06;2088503;28;20903;-63
2023/08/25 00:33:36;;;;;;;12.85;11.07;;;;;;;-146.25;100.00;52088.41;2079590;28;34071;-64
2023/08/25 00:34:39;;;;;;;14.07;11.50;;;;;;;-146.25;100.00;52110.69;2088511;28;20168;-62
2023/08/25 00:35:44;;;;;;;13.50;11.80;;;;;;;-146.25;100.00;52108.66;2089131;28;20953;-64
2023/08/25 00:36:48;;;;;;;14.30;11.32;;;;;;;-146.25;100.00;52100.56;2088164;28;20957;-63
2023/08/25 00:37:50;;;;;;;15.00;11.65;;;;;;;-146.25;100.00;52120.84;2088318;28;28563;-64
2023/08/25 00:38:52;;;;;;;15.07;11.85;;;;;;;-146.25;100.00;52128.94;2088217;28;20045;-64
2023/08/25 00:39:54;;;;;;;14.15;12.00;;;;;;;-146.25;100.00;52120.84;2096712;28;20146;-63
2023/08/25 00:40:56;;;;;;;13.60;12.02;;;;;;;-146.25;100.00;52124.91;2088005;28;29214;-64
2023/08/25 00:42:01;;;;;;;16.25;11.48;;;;;;;-146.25;100.00;52090.44;2089048;28;20167;-64
2023/08/25 00:43:06;;;;;;;15.98;11.68;;;;;;;-146.25;100.00;52114.75;2095847;28;30241;-63
2023/08/25 00:44:08;;;;;;;12.65;11.23;;;;;;;-146.25;100.00;52084.34;2097975;28;20110;-63
2023/08/25 00:45:12;;;;;;;13.93;11.63;;;;;;;-146.25;100.00;52108.66;2096812;28;20246;-64
2023/08/25 00:46:19;;;;;;;13.88;12.32;;;;;;;-146.25;100.00;52100.56;2096800;28;20041;-63
2023/08/25 00:47:21;;;;;;;14.85;11.48;;;;;;;-146.25;100.00;52112.72;2096972;28;31884;-63
2023/08/25 00:48:23;;;;;;;12.55;11.27;;;;;;;-146.25;100.00;52120.84;2096009;28;28497;-64
2023/08/25 00:49:26;;;;;;;15.55;12.23;;;;;;;-146.25;100.00;52072.19;2088562;28;20118;-64
2023/08/25 00:50:30;;;;;;;13.55;12.15;;;;;;;-146.25;100.00;52133.00;2087703;28;20040;-64
2023/08/25 00:51:32;;;;;;;14.13;11.05;;;;;;;-146.25;100.00;52092.44;2088480;28;20831;-64
2023/08/25 00:52:35;;;;;;;14.90;11.18;;;;;;;-146.25;100.00;52135.03;2096985;28;29138;-64
2023/08/25 00:53:38;;;;;;;12.50;10.57;;;;;;;-146.25;100.00;52130.97;2089514;28;25259;-64
2023/08/25 00:54:40;;;;;;;14.23;11.25;;;;;;;-146.25;100.00;52120.84;2081133;28;20088;-63
2023/08/25 00:55:42;;;;;;;18.50;12.82;;;;;;;-146.25;100.00;52090.44;2096503;28;20961;-65
2023/08/25 00:56:47;;;;;;;13.90;11.68;;;;;;;-146.25;100.00;52135.03;2096610;28;30252;-63
2023/08/25 00:57:48;;;;;;;16.27;11.32;;;;;;;-146.25;100.00;52147.19;2096251;28;26594;-64
2023/08/25 00:58:51;;;;;;;14.95;12.20;;;;;;;-146.25;100.00;52092.44;2096504;28;29620;-64
2023/08/25 00:59:52;;;;;;;13.40;11.52;;;;;;;-146.25;100.00;52108.66;2096457;28;20145;-64
2023/08/25 01:00:58;;;;;;;13.70;12.13;;;;;;;-146.25;100.00;52106.66;2096280;28;27847;-64
2023/08/25 01:02:01;;;;;;;13.70;12.07;;;;;;;-146.25;100.00;52100.56;2096581;28;20053;-64
2023/08/25 01:03:03;;;;;;;14.18;11.65;;;;;;;-146.25;100.00;52126.91;2095941;28;27629;-63
2023/08/25 01:04:05;;;;;;;17.45;14.02;;;;;;;-146.25;100.00;52128.94;2096731;28;20127;-64
2023/08/25 01:05:10;;;;;;;17.27;13.70;;;;;;;-146.25;100.00;52120.84;2096779;28;20037;-64
2023/08/25 01:06:11;;;;;;;14.80;13.30;;;;;;;-146.25;100.00;52088.41;2097274;28;21088;-64
2023/08/25 01:07:14;;;;;;;17.73;14.63;;;;;;;-146.25;100.00;52086.38;2097517;28;20110;-64
2023/08/25 01:08:18;;;;;;;18.13;14.23;;;;;;;-146.25;100.00;52116.78;2097311;28;20245;-64
2023/08/25 01:09:21;;;;;;;17.45;14.32;;;;;;;-146.25;100.00;52108.66;2096855;28;20106;-64
2023/08/25 01:10:32;;;;;;;17.38;13.82;;;;;;;-146.25;100.00;52092.44;2096409;28;20037;-64
2023/08/25 01:12:08;;;;;;;16.27;12.75;;;;;;;-146.25;100.00;52108.66;2097021;28;20056;-64
2023/08/25 01:13:18;;;;;;;19.98;13.95;;;;;;;-146.25;100.00;52100.56;2096817;28;20113;-64
2023/08/25 01:15:11;;;;;;;17.55;14.80;;;;;;;-146.25;100.00;52135.03;2096216;28;37356;-64
2023/08/25 01:16:17;;;;;;;17.45;14.15;;;;;;;-146.25;100.00;52100.56;2096758;28;29748;-64
2023/08/25 01:17:52;;;;;;;15.93;14.23;;;;;;;-146.25;100.00;52070.16;2097091;28;20907;-65
2023/08/25 01:18:56;;;;;;;17.50;14.57;;;;;;;-146.25;100.00;52060.00;2101980;28;30328;-65
2023/08/25 01:20:00;;;;;;;18.60;15.43;;;;;;;-146.25;100.00;52076.22;2096341;28;20040;-64
2023/08/25 01:21:05;;;;;;;15.70;13.70;;;;;;;-146.25;100.00;52074.22;2095905;28;30184;-64
2023/08/25 01:22:16;;;;;;;19.95;15.85;;;;;;;-146.25;100.00;52092.44;2096615;28;29386;-64
2023/08/25 01:23:38;;;;;;;18.00;15.68;;;;;;;-146.25;100.00;52066.09;2097226;28;20067;-64
2023/08/25 01:24:43;;;;;;;17.55;13.95;;;;;;;-146.25;100.00;52104.63;2091970;28;34993;-64
2023/08/25 01:25:50;;;;;;;18.30;16.33;;;;;;;-146.25;100.00;52084.34;2091078;28;20048;-64
2023/08/25 01:26:53;;;;;;;17.02;15.30;;;;;;;-146.25;100.00;52120.84;2088945;28;23857;-65
2023/08/25 01:27:58;;;;;;;19.90;15.77;;;;;;;-146.25;100.00;52076.22;2087952;28;31102;-64
2023/08/25 01:29:00;;;;;;;17.13;15.13;;;;;;;-146.25;100.00;52104.63;2088136;28;20104;-64
2023/08/25 01:30:06;;;;;;;21.48;15.48;;;;;;;-146.25;100.00;52060.00;2088654;28;21012;-64
2023/08/25 01:31:09;;;;;;;18.95;16.45;;;;;;;-146.25;100.00;52139.09;2095582;28;28524;-64
2023/08/25 01:32:11;;;;;;;18.98;16.67;;;;;;;-146.25;100.00;52088.41;2096971;28;20946;-65
2023/08/25 01:33:15;;;;;;;16.80;15.20;;;;;;;-146.25;100.00;52114.75;2096024;28;20076;-64
2023/08/25 01:34:18;;;;;;;16.95;15.10;;;;;;;-146.25;100.00;52080.28;2088589;28;27970;-64
2023/08/25 01:35:45;;;;;;;18.35;15.00;;;;;;;-146.25;100.00;52124.91;2087746;28;20788;-64
2023/08/25 01:37:10;;;;;;;17.98;16.13;;;;;;;-146.25;100.00;52100.56;2066745;28;20043;-64
2023/08/25 01:38:38;;;;;;;17.90;15.45;;;;;;;-146.25;100.00;52082.31;2087435;28;39448;-64
2023/08/25 01:39:44;;;;;;;19.60;16.30;;;;;;;-146.25;100.00;52096.50;2092143;28;20037;-64
2023/08/25 01:41:09;;;;;;;21.42;16.85;;;;;;;-146.25;100.00;52068.13;2096395;28;29701;-64
2023/08/25 01:42:14;;;;;;;19.15;16.55;;;;;;;-146.25;100.00;52100.56;2096746;28;20041;-64
2023/08/25 01:43:20;;;;;;;18.75;16.17;;;;;;;-146.25;100.00;52114.75;2089974;28;34481;-64
2023/08/25 01:44:24;;;;;;;19.85;16.52;;;;;;;-146.25;100.00;52094.47;2095682;28;23976;-64
2023/08/25 01:45:26;;;;;;;19.17;17.17;;;;;;;-146.25;100.00;52082.31;2088959;28;21011;-64
2023/08/25 01:46:30;;;;;;;21.83;17.52;;;;;;;-146.25;100.00;52074.22;2096201;28;26441;-64
2023/08/25 01:47:34;;;;;;;18.10;16.33;;;;;;;-146.25;100.00;52118.81;2095836;28;24717;-64
2023/08/25 01:48:42;;;;;;;21.45;17.85;;;;;;;-146.25;100.00;52108.66;2088433;28;20044;-64
2023/08/25 01:49:45;;;;;;;21.65;18.23;;;;;;;-146.25;100.00;52126.91;2088078;28;33332;-64
2023/08/25 01:50:47;;;;;;;21.85;18.50;;;;;;;-146.25;100.00;52122.88;2096697;28;31353;-64
2023/08/25 01:51:49;;;;;;;19.05;16.98;;;;;;;-146.25;100.00;52106.66;2094334;28;25132;-64
2023/08/25 01:52:52;;;;;;;20.67;18.50;;;;;;;-146.25;100.00;52110.69;2096454;28;20140;-64
2023/08/25 01:53:55;;;;;;;22.85;19.08;;;;;;;-146.25;100.00;52080.28;2096076;28;20199;-64
2023/08/25 01:54:57;;;;;;;21.52;17.88;;;;;;;-146.25;100.00;52092.44;2096138;28;28081;-63
2023/08/25 01:56:03;;;;;;;21.27;18.17;;;;;;;-146.25;100.00;52102.59;2096115;28;20057;-64
2023/08/25 01:57:08;;;;;;;23.75;18.52;;;;;;;-146.25;100.00;52106.66;2096835;28;20172;-63
2023/08/25 01:58:10;;;;;;;22.60;18.85;;;;;;;-146.25;100.00;52130.97;2096337;28;20823;-64
2023/08/25 01:59:11;;;;;;;19.60;17.50;;;;;;;-146.25;100.00;52076.22;2096871;28;20033;-64
2023/08/25 02:00:14;;;;;;;22.10;19.73;;;;;;;-146.25;100.00;52092.44;2095577;28;20072;-64
2023/08/25 02:01:16;;;;;;;25.02;20.25;;;;;;;-146.25;100.00;52104.63;2096223;28;20183;-64
2023/08/25 02:02:21;;;;;;;23.17;20.13;;;;;;;-146.25;100.00;52124.91;2089029;28;20034;-64
2023/08/25 02:03:23;;;;;;;25.25;20.23;;;;;;;-146.25;100.00;52100.56;2095979;28;20182;-65
2023/08/25 02:04:25;;;;;;;23.58;21.08;;;;;;;-146.25;100.00;52110.69;2097396;28;27275;-64
2023/08/25 02:05:27;;;;;;;22.90;19.90;;;;;;;-146.25;100.00;52088.41;2087610;28;28328;-64
2023/08/25 02:06:29;;;;;;;25.58;21.73;;;;;;;-146.25;100.00;52133.00;2088394;28;20771;-64
2023/08/25 02:07:31;;;;;;;21.38;19.20;;;;;;;-146.25;100.00;52096.50;2087967;28;23270;-64
2023/08/25 02:08:34;;;;;;;23.20;19.50;;;;;;;-146.25;100.00;52112.72;2079790;28;20053;-64
2023/08/25 02:09:36;;;;;;;23.38;19.30;;;;;;;-146.25;100.00;52088.41;2087872;28;26259;-64
2023/08/25 02:10:38;;;;;;;25.45;20.30;;;;;;;-146.25;100.00;52128.94;2088299;28;30821;-63
2023/08/25 02:11:40;;;;;;;22.10;17.75;;;;;;;-146.25;100.00;52171.53;2087846;28;30091;-64
2023/08/25 02:12:52;;;;;;;22.30;19.98;;;;;;;-146.25;100.00;52094.47;2088567;28;20957;-63
2023/08/25 02:13:54;;;;;;;23.75;20.23;;;;;;;-146.25;100.00;52104.63;2081046;28;26673;-64
2023/08/25 02:14:55;;;;;;;23.55;20.35;;;;;;;-146.25;100.00;52112.72;2087661;28;28617;-64
2023/08/25 02:15:57;;;;;;;24.58;20.55;;;;;;;-146.25;100.00;52124.91;2088462;28;20147;-64
2023/08/25 02:17:01;;;;;;;19.17;16.65;;;;;;;-146.25;100.00;52110.69;2087239;28;32097;-65
2023/08/25 02:18:04;;;;;;;22.45;19.88;;;;;;;-146.25;100.00;52100.56;2080468;28;20168;-64
2023/08/25 02:19:05;;;;;;;24.55;20.63;;;;;;;-146.25;100.00;52076.22;2088050;28;20033;-64
2023/08/25 02:20:10;;;;;;;21.10;18.80;;;;;;;-146.25;100.00;52112.72;2087789;28;21657;-64
2023/08/25 02:21:11;;;;;;;22.42;20.02;;;;;;;-146.25;100.00;52128.94;2088198;28;20096;-64
2023/08/25 02:22:13;;;;;;;29.45;22.10;;;;;;;-146.25;100.00;52096.50;2095526;28;20045;-64
2023/08/25 02:23:15;;;;;;;25.40;22.63;;;;;;;-146.25;100.00;52116.78;2096253;28;20091;-63
2023/08/25 02:24:17;;;;;;;25.48;20.98;;;;;;;-146.25;100.00;52141.13;2095488;28;27209;-64
2023/08/25 02:25:18;;;;;;;22.48;20.05;;;;;;;-146.25;100.00;52149.22;2095870;28;27542;-64
2023/08/25 02:26:20;;;;;;;20.70;18.55;;;;;;;-146.25;100.00;52114.75;2103860;28;20113;-64
2023/08/25 02:27:22;;;;;;;26.55;21.15;;;;;;;-146.25;100.00;52151.25;2103597;28;31766;-64
2023/08/25 02:28:27;;;;;;;24.17;21.48;;;;;;;-146.25;100.00;52124.91;2087191;28;27861;-64
2023/08/25 02:29:29;;;;;;;26.13;19.98;;;;;;;-146.25;100.00;52104.63;2087351;28;25467;-64
2023/08/25 02:30:34;;;;;;;27.48;22.02;;;;;;;-146.25;100.00;52143.13;2087261;28;33108;-64
2023/08/25 02:31:36;;;;;;;26.63;22.98;;;;;;;-146.25;100.00;52116.78;2088130;28;21511;-64
2023/08/25 02:32:40;;;;;;;23.20;20.80;;;;;;;-146.25;100.00;52153.28;2096338;28;20921;-64
2023/08/25 02:33:42;;;;;;;26.45;22.20;;;;;;;-146.25;100.00;52128.94;2096428;28;26031;-64
2023/08/25 02:34:43;;;;;;;26.60;21.25;;;;;;;-146.25;100.00;52088.41;2106826;28;29488;-64
2023/08/25 02:35:45;;;;;;;25.88;23.08;;;;;;;-146.25;100.00;52096.50;2104092;28;29965;-64
2023/08/25 02:36:47;;;;;;;28.30;22.95;;;;;;;-146.25;100.00;52098.53;2096728;28;20482;-64
2023/08/25 02:38:00;;;;;;;25.15;22.45;;;;;;;-146.25;100.00;52086.38;2104238;28;20048;-65
2023/08/25 02:39:03;;;;;;;29.48;23.83;;;;;;;-146.25;100.00;52137.06;2102768;28;20152;-64
2023/08/25 02:40:06;;;;;;;25.45;22.10;;;;;;;-146.25;100.00;52106.66;2095500;28;32477;-64
2023/08/25 02:41:07;;;;;;;26.33;22.17;;;;;;;-146.25;100.00;52149.22;2087610;28;30222;-65
2023/08/25 02:42:12;;;;;;;21.98;19.63;;;;;;;-146.25;100.00;52084.34;2088224;28;20037;-64
2023/08/25 02:43:14;;;;;;;26.83;23.10;;;;;;;-146.25;100.00;52102.59;2095693;28;33413;-64
2023/08/25 02:44:16;;;;;;;25.88;22.95;;;;;;;-146.25;100.00;52130.97;2096470;28;29572;-64
2023/08/25 02:45:17;;;;;;;23.92;20.70;;;;;;;-146.25;100.00;52104.63;2096626;28;23259;-64
2023/08/25 02:46:19;;;;;;;26.83;22.02;;;;;;;-146.25;100.00;52104.63;2096105;28;20125;-64
2023/08/25 02:47:21;;;;;;;22.95;19.67;;;;;;;-146.25;100.00;52124.91;2095232;28;30572;-64
2023/08/25 02:48:23;;;;;;;24.73;21.08;;;;;;;-146.25;100.00;52120.84;2096198;28;20049;-64
2023/08/25 02:49:28;;;;;;;28.08;22.15;;;;;;;-146.25;100.00;52088.41;2095961;28;20091;-64
2023/08/25 02:50:30;;;;;;;24.30;19.35;;;;;;;-146.25;100.00;52133.00;2095548;28;30082;-64
2023/08/25 02:51:31;;;;;;;23.38;19.92;;;;;;;-146.25;100.00;52118.81;2103681;28;40368;-64
2023/08/25 02:52:35;;;;;;;23.55;19.42;;;;;;;-146.25;100.00;52124.91;2104464;28;20051;-64
2023/08/25 02:53:36;;;;;;;25.35;21.33;;;;;;;-146.25;100.00;52116.78;2096409;28;29554;-64
2023/08/25 02:54:38;;;;;;;28.15;22.58;;;;;;;-146.25;100.00;52112.72;2104154;28;20041;-64
2023/08/25 02:55:42;;;;;;;25.75;22.48;;;;;;;-146.25;100.00;52108.66;2105077;28;20187;-65
2023/08/25 02:56:44;;;;;;;27.83;22.38;;;;;;;-146.25;100.00;52092.44;2087778;28;29461;-65
2023/08/25 02:57:47;;;;;;;28.10;23.20;;;;;;;-146.25;100.00;52128.94;2096144;28;20045;-64
2023/08/25 02:58:49;;;;;;;27.60;22.67;;;;;;;-146.25;100.00;52118.81;2104096;28;20052;-65
2023/08/25 02:59:55;;;;;;;25.33;22.70;;;;;;;-146.25;100.00;52120.84;2087552;28;20337;-65
2023/08/25 03:00:56;;;;;;;28.50;22.98;;;;;;;-146.25;100.00;52090.44;2087892;28;20049;-65
2023/08/25 03:01:58;;;;;;;24.35;21.70;;;;;;;-146.25;100.00;52130.97;2096786;28;28098;-65
2023/08/25 03:03:03;;;;;;;29.40;22.33;;;;;;;-146.25;100.00;52112.72;2105767;28;20040;-65
2023/08/25 03:04:05;;;;;;;25.17;22.08;;;;;;;-146.25;100.00;52122.88;2104865;28;20037;-64
2023/08/25 03:05:09;;;;;;;25.27;21.02;;;;;;;-146.25;100.00;52143.13;2107939;28;20159;-65
2023/08/25 03:06:11;;;;;;;22.33;20.02;;;;;;;-146.25;100.00;52133.00;2100724;28;20084;-65
2023/08/25 03:07:12;;;;;;;25.90;21.50;;;;;;;-146.25;100.00;52118.81;2088972;28;20080;-65
2023/08/25 03:08:15;;;;;;;23.95;21.20;;;;;;;-146.25;100.00;52120.84;2085968;28;20993;-65
2023/08/25 03:09:20;;;;;;;25.63;21.13;;;;;;;-146.25;100.00;52120.84;2089115;28;20053;-64
2023/08/25 03:10:22;;;;;;;28.90;22.00;;;;;;;-146.25;100.00;52092.44;2096255;28;21184;-64
2023/08/25 03:11:25;;;;;;;24.35;21.05;;;;;;;-146.25;100.00;52096.50;2105909;28;20090;-65
2023/08/25 03:12:27;;;;;;;23.88;20.50;;;;;;;-146.25;100.00;52133.00;2105397;28;30113;-64
2023/08/25 03:13:30;;;;;;;27.52;22.92;;;;;;;-146.25;100.00;52122.88;2097454;28;20041;-65
2023/08/25 03:14:34;;;;;;;25.65;22.35;;;;;;;-146.25;100.00;52137.06;2088947;28;20061;-64
2023/08/25 03:15:36;;;;;;;27.80;21.95;;;;;;;-146.25;100.00;52112.72;2088810;28;20627;-64
2023/08/25 03:16:38;;;;;;;25.50;22.80;;;;;;;-146.25;100.00;52112.72;2088329;28;20045;-64
2023/08/25 03:17:41;;;;;;;25.27;22.50;;;;;;;-146.25;100.00;52122.88;2088170;28;20042;-64
2023/08/25 03:18:44;;;;;;;28.13;21.75;;;;;;;-146.25;100.00;52149.22;2089110;28;20038;-65
2023/08/25 03:19:46;;;;;;;23.33;20.25;;;;;;;-146.25;100.00;52139.09;2089408;28;20046;-65
2023/08/25 03:20:51;;;;;;;26.13;22.20;;;;;;;-146.25;100.00;52100.56;2080945;28;20065;-64
2023/08/25 03:21:54;;;;;;;26.02;22.00;;;;;;;-146.25;100.00;52112.72;2089130;28;20041;-64
2023/08/25 03:23:00;;;;;;;22.08;19.73;;;;;;;-146.25;100.00;52110.69;2088791;28;20167;-64
2023/08/25 03:24:02;;;;;;;23.08;19.38;;;;;;;-146.25;100.00;52112.72;2096026;28;25435;-65
2023/08/25 03:25:05;;;;;;;20.88;18.67;;;;;;;-146.25;100.00;52120.84;2096779;28;20037;-65
2023/08/25 03:26:06;;;;;;;23.25;19.75;;;;;;;-146.25;100.00;52098.53;2097271;28;20037;-64
2023/08/25 03:27:08;;;;;;;23.65;20.13;;;;;;;-146.25;100.00;52124.91;2088748;28;20172;-64
2023/08/25 03:28:10;;;;;;;24.88;18.83;;;;;;;-146.25;100.00;52120.84;2080669;28;20034;-64
2023/08/25 03:29:12;;;;;;;26.45;21.92;;;;;;;-146.25;100.00;52092.44;2088427;28;31572;-64
2023/08/25 03:30:14;;;;;;;23.40;20.60;;;;;;;-146.25;100.00;52088.41;2089000;28;20119;-64
2023/08/25 03:31:20;;;;;;;25.85;21.58;;;;;;;-146.25;100.00;52130.97;2080730;28;20038;-64
2023/08/25 03:32:24;;;;;;;28.25;21.88;;;;;;;-146.25;100.00;52159.34;2089084;28;20049;-65
2023/08/25 03:33:26;;;;;;;23.83;21.23;;;;;;;-146.25;100.00;52137.06;2092261;28;20033;-65
2023/08/25 03:34:29;;;;;;;23.40;21.00;;;;;;;-146.25;100.00;52128.94;2088767;28;20260;-64
2023/08/25 03:35:35;;;;;;;25.42;21.13;;;;;;;-146.25;100.00;52137.06;2098808;28;20045;-64
2023/08/25 03:36:37;;;;;;;23.80;18.75;;;;;;;-146.25;100.00;52128.94;2089407;28;31737;-65
2023/08/25 03:37:40;;;;;;;25.38;21.52;;;;;;;-146.25;100.00;52143.13;2096784;28;20053;-64
2023/08/25 03:38:42;;;;;;;22.92;20.48;;;;;;;-146.25;100.00;52149.22;2097222;28;20893;-65
2023/08/25 03:39:45;;;;;;;27.48;23.10;;;;;;;-146.25;100.00;52141.13;2097091;28;20053;-65
2023/08/25 03:40:47;;;;;;;24.58;21.98;;;;;;;-146.25;100.00;52100.56;2089020;28;20791;-65
2023/08/25 03:41:52;;;;;;;23.33;20.13;;;;;;;-146.25;100.00;52108.66;2097491;28;20033;-64
2023/08/25 03:42:54;;;;;;;25.73;22.23;;;;;;;-146.25;100.00;52155.31;2097202;28;20853;-65
2023/08/25 03:43:58;;;;;;;23.92;21.27;;;;;;;-146.25;100.00;52124.91;2088821;28;20934;-65
2023/08/25 03:45:06;;;;;;;22.42;19.75;;;;;;;-146.25;100.00;52116.78;2097469;28;20025;-64
2023/08/25 03:46:08;;;;;;;28.40;23.80;;;;;;;-146.25;100.00;52098.53;2096443;28;28640;-65
2023/08/25 03:47:09;;;;;;;23.48;20.40;;;;;;;-146.25;100.00;52108.66;2097020;28;20090;-65
2023/08/25 03:48:11;;;;;;;23.30;20.77;;;;;;;-146.25;100.00;52165.44;2095905;28;20167;-64
2023/08/25 03:49:13;;;;;;;27.98;23.02;;;;;;;-146.25;100.00;52137.06;2087920;28;28504;-64
2023/08/25 03:50:16;;;;;;;25.50;22.13;;;;;;;-146.25;100.00;52189.78;2080494;28;20026;-64
2023/08/25 03:51:17;;;;;;;26.27;23.42;;;;;;;-146.25;100.00;52141.13;2091735;28;28993;-62
2023/08/25 03:52:19;;;;;;;27.40;23.08;;;;;;;-146.25;100.00;52100.56;2088412;28;20061;-64
2023/08/25 03:53:21;;;;;;;29.75;25.13;;;;;;;-146.25;100.00;52133.00;2088819;28;20093;-64
2023/08/25 03:54:31;;;;;;;26.30;22.77;;;;;;;-146.25;100.00;52112.72;2080561;28;20887;-65
2023/08/25 03:55:32;;;;;;;23.98;21.25;;;;;;;-146.25;100.00;52143.13;2093527;28;20712;-65
2023/08/25 03:56:34;;;;;;;32.28;25.15;;;;;;;-146.25;100.00;52137.06;2103311;28;32264;-64
2023/08/25 03:57:39;;;;;;;31.17;25.23;;;;;;;-146.25;100.00;52145.16;2088707;28;21017;-64
2023/08/25 03:58:41;;;;;;;31.48;26.15;;;;;;;-146.25;100.00;52128.94;2097254;28;20029;-65
2023/08/25 03:59:43;;;;;;;33.67;26.73;;;;;;;-146.25;100.00;52082.31;2095763;28;32856;-64
2023/08/25 04:00:54;;;;;;;27.38;23.27;;;;;;;-146.25;100.00;52108.66;2088299;28;32614;-65
2023/08/25 04:01:55;;;;;;;;;;;;;;;-146.25;100.00;52118.81;2097227;28;20056;-65
2023/08/25 04:02:59;;;;;;;29.60;24.30;;;;;;;-146.25;100.00;52122.88;2096987;28;20078;-64
2023/08/25 04:04:02;;;;;;;29.67;24.88;;;;;;;-146.25;100.00;52118.81;2098079;28;27391;-63
2023/08/25 04:05:07;;;;;;;34.55;26.33;;;;;;;-146.25;100.00;52133.00;2096752;28;34998;-63
2023/08/25 04:06:09;;;;;;;31.05;26.08;;;;;;;-146.25;100.00;52112.72;2097406;28;20183;-63
2023/08/25 04:07:13;;;;;;;30.20;25.77;;;;;;;-146.25;100.00;52155.31;2097206;28;20045;-63
2023/08/25 04:08:15;;;;;;;30.70;23.67;;;;;;;-146.25;100.00;52133.00;2096684;28;20296;-63
2023/08/25 04:09:17;;;;;;;31.77;26.48;;;;;;;-146.25;100.00;52157.34;2096635;28;20138;-62
2023/08/25 04:10:21;;;;;;;35.35;26.17;;;;;;;-146.25;100.00;52076.22;2097245;28;20041;-63
2023/08/25 04:11:24;;;;;;;32.35;26.02;;;;;;;-146.25;100.00;52165.44;2096818;28;20041;-64
2023/08/25 04:12:26;;;;;;;32.88;24.42;;;;;;;-146.25;100.00;52135.03;2088549;28;20173;-62
2023/08/25 04:13:28;;;;;;;32.50;25.27;;;;;;;-146.25;100.00;52124.91;2087849;28;20048;-62
2023/08/25 04:14:30;;;;;;;33.30;26.23;;;;;;;-146.25;100.00;52124.91;2088620;28;20918;-65
2023/08/25 04:15:36;;;;;;;30.58;24.63;;;;;;;-146.25;100.00;52157.34;2097012;28;20105;-63
2023/08/25 04:16:38;;;;;;;31.60;24.75;;;;;;;-146.25;100.00;52141.13;2097254;28;20029;-63
2023/08/25 04:17:40;;;;;;;36.53;27.35;;;;;;;-146.25;100.00;52102.59;2096400;28;20041;-63
2023/08/25 04:18:45;;;;;;;32.00;26.27;;;;;;;-146.25;100.00;52167.47;2088531;28;20256;-63
2023/08/25 04:19:47;;;;;;;30.05;24.98;;;;;;;-146.25;100.00;52165.44;2097103;28;20025;-63
2023/08/25 04:20:50;;;;;;;32.33;25.63;;;;;;;-146.25;100.00;52143.13;2096813;28;20076;-62
2023/08/25 04:21:54;;;;;;;35.90;27.95;;;;;;;-146.25;100.00;52116.78;2088476;28;21000;-63
2023/08/25 04:22:56;;;;;;;32.22;27.48;;;;;;;-146.25;100.00;52137.06;2096840;28;22983;-63
2023/08/25 04:23:58;;;;;;;31.65;25.65;;;;;;;-146.25;100.00;52114.75;2096948;28;25333;-63
2023/08/25 04:25:00;;;;;;;33.45;26.92;;;;;;;-146.25;100.00;52159.34;2096682;28;20048;-62
2023/08/25 04:26:02;;;;;;;36.17;28.55;;;;;;;-146.25;100.00;52135.03;2087991;28;20044;-63
2023/08/25 04:27:04;;;;;;;38.95;28.65;;;;;;;-146.25;100.00;52149.22;2096441;28;20057;-63
2023/08/25 04:28:06;;;;;;;35.15;27.85;;;;;;;-146.25;100.00;52133.00;2105243;28;20067;-62
2023/08/25 04:29:09;;;;;;;34.97;28.15;;;;;;;-146.25;100.00;52149.22;2096418;28;20167;-62
2023/08/25 04:30:14;;;;;;;35.08;27.80;;;;;;;-146.25;100.00;52137.06;2088663;28;20037;-61
2023/08/25 04:31:15;;;;;;;32.63;27.10;;;;;;;-146.25;100.00;52157.34;2088565;28;20048;-63
2023/08/25 04:32:24;;;;;;;37.83;28.75;;;;;;;-146.25;100.00;52112.72;2089233;28;20050;-62
2023/08/25 04:33:28;;;;;;;35.85;29.25;;;;;;;-146.25;100.00;52141.13;2080517;28;20037;-62
2023/08/25 04:34:31;;;;;;;27.83;23.88;;;;;;;-146.25;100.00;52106.66;2081571;28;20851;-63
2023/08/25 04:35:36;;;;;;;28.40;24.65;;;;;;;-146.25;100.00;52155.31;2088451;28;20038;-63
2023/08/25 04:36:39;;;;;;;32.40;25.50;;;;;;;-146.25;100.00;52167.47;2090374;28;20179;-63
2023/08/25 04:37:47;;;;;;;25.45;22.35;;;;;;;-146.25;100.00;52155.31;2097074;28;20096;-63
2023/08/25 04:38:48;;;;;;;28.88;25.60;;;;;;;-146.25;100.00;52161.38;2105010;28;20060;-63
2023/08/25 04:39:54;;;;;;;26.83;21.95;;;;;;;-146.25;100.00;52139.09;2105222;28;20044;-63
2023/08/25 04:40:59;;;;;;;30.40;24.90;;;;;;;-146.25;100.00;52137.06;2104875;28;20052;-63
2023/08/25 04:42:01;;;;;;;23.95;20.42;;;;;;;-146.25;100.00;52141.13;2096091;28;20948;-63
2023/08/25 04:43:05;;;;;;;29.63;23.65;;;;;;;-146.25;100.00;52177.59;2096737;28;20041;-64
2023/08/25 04:44:08;;;;;;;28.67;23.80;;;;;;;-146.25;100.00;52141.13;2104990;28;20033;-63